Time;durP1;ratioP1;P1;durP2;ratioP2;P2;SDS_P1;SDS_P2;PMS_P1;PMS_P2;Temp;Humidity;BMP_temperature;BMP_pressure;BME280_temperature;BME280_humidity;BME280_pressure;Samples;Min_cycle;Max_cycle;Signal;HPM_P1;HPM_P2
2022/01/15 00:01:16;;;;;;;37.50;17.90;;;6.50;99.90;;;;;;5049698;28;20083;-57
2022/01/15 00:03:42;;;;;;;27.17;16.53;;;6.50;99.90;;;;;;5050278;28;20044;-59
2022/01/15 00:06:08;;;;;;;26.85;15.50;;;6.50;99.90;;;;;;5049418;28;20483;-59
2022/01/15 00:08:34;;;;;;;30.15;17.80;;;6.50;99.90;;;;;;5049926;28;20044;-59
2022/01/15 00:10:59;;;;;;;31.27;16.50;;;6.50;99.90;;;;;;5049678;28;20072;-55
2022/01/15 00:13:29;;;;;;;29.50;16.63;;;6.50;99.90;;;;;;5049573;28;20033;-57
2022/01/15 00:19:05;;;;;;;33.70;17.52;;;6.50;99.90;;;;;;5047304;28;20052;-58
2022/01/15 00:21:30;;;;;;;31.38;16.33;;;6.50;99.90;;;;;;5049293;28;20052;-58
2022/01/15 00:23:56;;;;;;;36.57;17.97;;;6.50;99.90;;;;;;5049552;28;20405;-56
2022/01/15 00:26:21;;;;;;;29.63;15.77;;;6.50;99.90;;;;;;5049294;28;20032;-58
2022/01/15 00:28:47;;;;;;;27.30;16.27;;;6.50;99.90;;;;;;5049764;28;20044;-59
2022/01/15 00:31:13;;;;;;;32.70;17.00;;;6.50;99.90;;;;;;5049599;28;20041;-59
2022/01/15 00:33:39;;;;;;;31.63;16.93;;;6.50;99.90;;;;;;5050158;28;20315;-57
2022/01/15 00:36:04;;;;;;;26.08;15.57;;;6.40;99.90;;;;;;5049299;28;20036;-57
2022/01/15 00:38:30;;;;;;;28.27;15.73;;;6.50;99.90;;;;;;5049147;28;20490;-58
2022/01/15 00:40:56;;;;;;;37.80;16.80;;;6.50;99.90;;;;;;5049780;28;20045;-58
2022/01/15 00:43:21;;;;;;;29.90;16.90;;;6.40;99.90;;;;;;5037623;28;20494;-59
2022/01/15 00:45:48;;;;;;;28.50;17.23;;;6.50;99.90;;;;;;5049150;28;20064;-59
2022/01/15 00:48:14;;;;;;;31.08;17.20;;;6.50;99.90;;;;;;5048367;28;20500;-56
2022/01/15 00:50:40;;;;;;;34.22;17.27;;;6.50;99.90;;;;;;5049312;28;20117;-58
2022/01/15 00:53:05;;;;;;;26.92;14.30;;;6.50;99.90;;;;;;5048964;28;20116;-59
2022/01/15 00:55:31;;;;;;;24.93;13.90;;;6.40;99.90;;;;;;5048000;28;20053;-58
2022/01/15 00:57:57;;;;;;;28.73;15.13;;;6.40;99.90;;;;;;5051353;28;20798;-59
2022/01/15 01:00:24;;;;;;;23.87;15.07;;;6.40;99.90;;;;;;5055792;28;20041;-59
2022/01/15 01:02:50;;;;;;;24.77;14.80;;;6.40;99.90;;;;;;5054146;28;20357;-59
2022/01/15 01:05:18;;;;;;;27.27;15.43;;;6.40;99.90;;;;;;5048745;28;20037;-59
2022/01/15 01:07:43;;;;;;;23.52;14.75;;;6.40;99.90;;;;;;5052603;28;20413;-59
2022/01/15 01:21:12;;;;;;;21.30;13.65;;;6.50;99.90;;;;;;5041706;28;20045;-59
2022/01/15 01:23:38;;;;;;;26.25;14.38;;;6.40;99.90;;;;;;5047688;28;20401;-59
2022/01/15 01:26:12;;;;;;;29.17;15.07;;;6.40;99.90;;;;;;5048362;28;20037;-58
2022/01/15 01:28:40;;;;;;;21.70;13.15;;;6.40;99.90;;;;;;5047795;28;20045;-58
2022/01/15 01:31:20;;;;;;;21.25;13.50;;;6.40;99.90;;;;;;5050667;28;20039;-59
2022/01/15 01:33:50;;;;;;;24.85;14.15;;;6.50;99.90;;;;;;5051499;28;20060;-58
2022/01/15 01:36:25;;;;;;;24.50;14.85;;;6.40;99.90;;;;;;5051990;28;20041;-58
2022/01/15 01:38:58;;;;;;;22.55;12.23;;;6.40;99.90;;;;;;5052760;28;20124;-59
2022/01/15 01:41:24;;;;;;;22.15;12.98;;;6.40;99.90;;;;;;5052508;28;20036;-59
2022/01/15 01:43:57;;;;;;;18.92;11.52;;;6.40;99.90;;;;;;5052671;28;20431;-58
2022/01/15 01:48:49;;;;;;;19.53;11.77;;;6.50;99.90;;;;;;5051503;28;20044;-58
2022/01/15 01:51:47;;;;;;;19.90;12.20;;;6.40;99.90;;;;;;5052405;28;20291;-57
2022/01/15 01:54:18;;;;;;;19.52;11.55;;;6.40;99.90;;;;;;5029929;28;20045;-54
2022/01/15 01:56:44;;;;;;;19.38;11.52;;;6.40;99.90;;;;;;5052353;28;20041;-59
2022/01/15 01:59:10;;;;;;;22.63;12.30;;;6.40;99.90;;;;;;5050944;28;20270;-59
2022/01/15 02:01:35;;;;;;;22.25;12.85;;;6.40;99.90;;;;;;5050969;28;20478;-58
2022/01/15 02:04:01;;;;;;;25.00;12.23;;;6.40;99.90;;;;;;5050394;28;20041;-58
2022/01/15 02:06:27;;;;;;;21.15;12.07;;;6.40;99.90;;;;;;5052088;28;20033;-58
2022/01/15 02:08:54;;;;;;;23.00;12.88;;;6.40;99.90;;;;;;5052165;28;20037;-59
2022/01/15 02:11:20;;;;;;;21.05;13.70;;;6.40;99.90;;;;;;5052005;28;20342;-58
2022/01/15 02:13:46;;;;;;;23.25;14.32;;;6.40;99.90;;;;;;5052264;28;20119;-57
2022/01/15 02:16:14;;;;;;;20.17;12.43;;;6.40;99.90;;;;;;5050405;28;20052;-57
2022/01/15 02:18:40;;;;;;;19.00;12.18;;;6.40;99.90;;;;;;5047683;28;20040;-57
2022/01/15 02:23:41;;;;;;;18.63;11.48;;;6.40;99.90;;;;;;5051543;28;20049;-58
2022/01/15 02:26:09;;;;;;;20.25;12.80;;;6.40;99.90;;;;;;5051348;28;20513;-57
2022/01/15 02:28:40;;;;;;;29.90;11.60;;;6.40;99.90;;;;;;5033538;28;20045;-57
2022/01/15 02:31:16;;;;;;;19.70;11.52;;;6.40;99.90;;;;;;5050894;28;20033;-57
2022/01/15 02:33:43;;;;;;;21.73;12.27;;;6.40;99.90;;;;;;5051990;28;20082;-55
2022/01/15 02:36:21;;;;;;;20.25;11.63;;;6.40;99.90;;;;;;5051712;28;20064;-56
2022/01/15 02:38:47;;;;;;;19.48;11.57;;;6.40;99.90;;;;;;5051611;28;20045;-55
2022/01/15 02:41:13;;;;;;;16.33;10.10;;;6.40;99.90;;;;;;5051283;28;20081;-54
2022/01/15 02:43:39;;;;;;;21.65;12.80;;;6.40;99.90;;;;;;5051096;28;20351;-57
2022/01/15 02:48:59;;;;;;;19.27;11.82;;;6.40;99.90;;;;;;5039672;28;20043;-56
2022/01/15 02:51:29;;;;;;;18.80;11.25;;;6.40;99.90;;;;;;5051090;28;20029;-58
2022/01/15 02:53:55;;;;;;;21.65;11.70;;;6.40;99.90;;;;;;5033365;28;20049;-58
2022/01/15 02:56:26;;;;;;;21.42;11.70;;;6.40;99.90;;;;;;5050897;28;20060;-57
2022/01/15 02:58:52;;;;;;;21.42;11.65;;;6.40;99.90;;;;;;5051144;28;20056;-58
2022/01/15 03:01:18;;;;;;;16.67;10.73;;;6.40;99.90;;;;;;5050957;28;20049;-55
2022/01/15 03:03:44;;;;;;;19.10;11.33;;;6.40;99.90;;;;;;5050857;28;20041;-58
2022/01/15 03:06:14;;;;;;;21.67;11.77;;;6.40;99.90;;;;;;5050607;28;20267;-57
2022/01/15 03:08:41;;;;;;;20.55;12.40;;;6.40;99.90;;;;;;5050745;28;20322;-59
2022/01/15 03:11:07;;;;;;;21.92;12.05;;;6.40;99.90;;;;;;5049249;28;20048;-57
2022/01/15 03:13:34;;;;;;;19.75;12.50;;;6.40;99.90;;;;;;5051038;28;20037;-56
2022/01/15 03:16:00;;;;;;;21.88;11.57;;;6.40;99.90;;;;;;5050925;28;20037;-56
2022/01/15 03:18:25;;;;;;;23.13;13.10;;;6.40;99.90;;;;;;5049697;28;20052;-55
2022/01/15 03:20:51;;;;;;;22.33;11.93;;;6.30;99.90;;;;;;5050104;28;20287;-55
2022/01/15 03:23:17;;;;;;;22.20;11.57;;;6.30;99.90;;;;;;5047476;28;20493;-57
2022/01/15 03:25:43;;;;;;;18.77;11.70;;;6.30;99.90;;;;;;5050726;28;20044;-57
2022/01/15 03:28:08;;;;;;;19.45;11.45;;;6.30;99.90;;;;;;5050638;28;20382;-58
2022/01/15 03:30:34;;;;;;;21.80;12.27;;;6.30;99.90;;;;;;5050791;28;20579;-54
2022/01/15 03:33:00;;;;;;;16.03;10.30;;;6.30;99.90;;;;;;5049914;28;20029;-58
2022/01/15 03:35:25;;;;;;;19.83;11.27;;;6.30;99.90;;;;;;5050522;28;20098;-56
2022/01/15 03:37:51;;;;;;;18.63;11.07;;;6.30;99.90;;;;;;5049961;28;20059;-58
2022/01/15 03:40:17;;;;;;;20.33;10.97;;;6.30;99.90;;;;;;5050800;28;20287;-58
2022/01/15 03:42:44;;;;;;;20.60;11.75;;;6.30;99.90;;;;;;5049750;28;20522;-57
2022/01/15 03:45:11;;;;;;;18.17;10.15;;;6.30;99.90;;;;;;5050144;28;20091;-56
2022/01/15 03:47:37;;;;;;;18.83;10.70;;;6.30;99.90;;;;;;5050175;28;20033;-58
2022/01/15 03:50:04;;;;;;;21.60;12.50;;;6.30;99.90;;;;;;5049828;28;20029;-56
2022/01/15 03:52:30;;;;;;;23.63;13.07;;;6.30;99.90;;;;;;5050429;28;20412;-57
2022/01/15 03:54:56;;;;;;;22.00;11.60;;;6.30;99.90;;;;;;5049623;28;20040;-58
2022/01/15 03:57:21;;;;;;;18.17;11.18;;;6.30;99.90;;;;;;5050205;28;20041;-58
2022/01/15 03:59:47;;;;;;;24.67;12.60;;;6.30;99.90;;;;;;5048521;28;20260;-59
2022/01/15 04:02:12;;;;;;;21.50;12.93;;;6.20;99.90;;;;;;5049992;28;20029;-59
2022/01/15 04:04:38;;;;;;;19.57;12.47;;;6.30;99.90;;;;;;5049234;28;20056;-57
2022/01/15 04:07:04;;;;;;;20.87;12.93;;;6.30;99.90;;;;;;5052372;28;20048;-59
2022/01/15 04:09:29;;;;;;;20.53;11.57;;;6.30;99.90;;;;;;5053840;28;20060;-58
2022/01/15 04:11:55;;;;;;;18.57;11.70;;;6.30;99.90;;;;;;5054303;28;20037;-59
2022/01/15 04:14:20;;;;;;;22.57;13.00;;;6.30;99.90;;;;;;5049843;28;20498;-59
2022/01/15 04:16:46;;;;;;;18.93;11.13;;;6.30;99.90;;;;;;5049408;28;20056;-57
2022/01/15 04:19:12;;;;;;;21.03;11.40;;;6.30;99.90;;;;;;5049628;28;20040;-58
2022/01/15 04:21:37;;;;;;;14.50;9.70;;;6.30;99.90;;;;;;5049257;28;20102;-59
2022/01/15 04:24:03;;;;;;;17.87;10.23;;;6.30;99.90;;;;;;5049311;28;20036;-56
2022/01/15 04:26:29;;;;;;;16.55;10.15;;;6.30;99.90;;;;;;5049557;28;20124;-58
2022/01/15 04:29:02;;;;;;;16.50;10.88;;;6.30;99.90;;;;;;5049564;28;20079;-59
2022/01/15 04:31:28;;;;;;;16.30;10.75;;;6.20;99.90;;;;;;5049513;28;20064;-59
2022/01/15 04:33:53;;;;;;;17.20;9.87;;;6.30;99.90;;;;;;5049410;28;20033;-58
2022/01/15 04:36:19;;;;;;;18.90;10.10;;;6.20;99.90;;;;;;5049467;28;20307;-59
2022/01/15 04:38:45;;;;;;;14.53;9.80;;;6.20;99.90;;;;;;5049597;28;20059;-59
2022/01/15 04:41:11;;;;;;;18.10;11.80;;;6.20;99.90;;;;;;5049940;28;20320;-59
2022/01/15 04:43:36;;;;;;;19.75;11.95;;;6.20;99.90;;;;;;5049849;28;20053;-59
2022/01/15 04:46:02;;;;;;;19.70;12.65;;;6.20;99.90;;;;;;5049780;28;20469;-58
2022/01/15 04:48:28;;;;;;;19.13;11.95;;;6.20;99.90;;;;;;5049041;28;20124;-58
2022/01/15 04:50:54;;;;;;;23.50;12.95;;;6.20;99.90;;;;;;5048293;28;20131;-59
2022/01/15 04:53:20;;;;;;;21.90;12.25;;;6.20;99.90;;;;;;5048617;28;20049;-59
2022/01/15 04:55:46;;;;;;;20.37;11.80;;;6.20;99.90;;;;;;5049321;28;20036;-58
2022/01/15 04:58:12;;;;;;;18.90;12.23;;;6.20;99.90;;;;;;5049200;28;20306;-59
2022/01/15 05:00:38;;;;;;;18.70;10.18;;;6.20;99.90;;;;;;5049153;28;20136;-58
2022/01/15 05:03:04;;;;;;;21.02;11.18;;;6.20;99.90;;;;;;5048816;28;20041;-58
2022/01/15 05:05:31;;;;;;;17.70;9.95;;;6.20;99.90;;;;;;5048845;28;20044;-59
2022/01/15 05:07:57;;;;;;;15.35;8.57;;;6.20;99.90;;;;;;5051878;28;20041;-59
2022/01/15 05:10:27;;;;;;;11.50;6.40;;;6.20;99.90;;;;;;5053317;28;20095;-58
2022/01/15 05:12:56;;;;;;;9.20;6.55;;;6.10;99.90;;;;;;5042688;28;20052;-57
2022/01/15 05:15:22;;;;;;;12.32;6.85;;;6.10;99.90;;;;;;5052474;28;20501;-59
2022/01/15 05:17:49;;;;;;;8.00;5.95;;;6.10;99.90;;;;;;5052695;28;20068;-59
2022/01/15 05:20:20;;;;;;;9.43;5.38;;;6.10;99.90;;;;;;5053058;28;20401;-59
2022/01/15 05:22:46;;;;;;;6.68;4.80;;;6.10;99.90;;;;;;5052900;28;20037;-59
2022/01/15 05:25:17;;;;;;;8.75;5.30;;;6.10;99.90;;;;;;5052463;28;20397;-59
2022/01/15 05:27:43;;;;;;;8.98;5.90;;;6.10;99.90;;;;;;5053062;28;20037;-59
2022/01/15 05:30:09;;;;;;;6.28;4.82;;;6.00;99.90;;;;;;5048843;28;20029;-59
2022/01/15 05:32:35;;;;;;;;;;;6.00;99.90;;;;;;5053576;28;20044;-59
2022/01/15 05:35:01;;;;;;;7.50;5.07;;;6.00;99.90;;;;;;5052434;28;19916;-58
2022/01/15 05:37:27;;;;;;;7.83;4.53;;;6.00;99.90;;;;;;5052663;28;20048;-59
2022/01/15 05:39:53;;;;;;;8.27;4.90;;;6.00;99.90;;;;;;5052627;28;20319;-59
2022/01/15 05:42:18;;;;;;;8.57;5.28;;;6.00;99.90;;;;;;5052159;28;20076;-59
2022/01/15 05:44:44;;;;;;;8.40;5.32;;;6.00;99.90;;;;;;5050600;28;20052;-57
2022/01/15 05:47:10;;;;;;;8.70;6.20;;;6.00;99.90;;;;;;5052777;28;20040;-58
2022/01/15 05:49:36;;;;;;;9.20;5.60;;;6.00;99.90;;;;;;5052386;28;20288;-59
2022/01/15 05:52:02;;;;;;;9.75;5.53;;;6.00;99.90;;;;;;5052543;28;20080;-59
2022/01/15 05:54:27;;;;;;;8.20;4.97;;;6.00;99.90;;;;;;5051927;28;20040;-57
2022/01/15 05:56:53;;;;;;;8.60;5.50;;;6.00;99.90;;;;;;5052057;28;20051;-57
2022/01/15 05:59:19;;;;;;;7.20;5.13;;;6.00;99.90;;;;;;5051928;28;20415;-59
2022/01/15 06:01:44;;;;;;;8.57;5.37;;;5.90;99.90;;;;;;5052259;28;20099;-59
2022/01/15 06:04:10;;;;;;;11.73;7.23;;;5.90;99.90;;;;;;5051974;28;20037;-58
2022/01/15 06:06:35;;;;;;;10.07;6.87;;;5.90;99.90;;;;;;5052367;28;20039;-57
2022/01/15 06:09:02;;;;;;;10.83;6.87;;;5.90;99.90;;;;;;5052610;28;20060;-57
2022/01/15 06:11:28;;;;;;;8.02;5.60;;;5.90;99.90;;;;;;5052524;28;20379;-58
2022/01/15 06:13:54;;;;;;;9.15;6.65;;;5.90;99.90;;;;;;5051064;28;20045;-57
2022/01/15 06:16:20;;;;;;;10.18;5.78;;;5.80;99.90;;;;;;5051842;28;20041;-59
2022/01/15 06:18:46;;;;;;;11.60;6.15;;;5.90;99.90;;;;;;5051821;28;20043;-58
2022/01/15 06:21:12;;;;;;;8.15;6.05;;;5.90;99.90;;;;;;5052064;28;20402;-55
2022/01/15 06:23:37;;;;;;;11.83;6.97;;;5.90;99.90;;;;;;5051616;28;20052;-58
2022/01/15 06:26:03;;;;;;;11.80;6.53;;;5.90;99.90;;;;;;5050174;28;20037;-59
2022/01/15 06:28:28;;;;;;;10.40;6.87;;;5.90;99.90;;;;;;5051027;28;20041;-58
2022/01/15 06:30:54;;;;;;;10.17;6.50;;;5.90;99.90;;;;;;5052131;28;20440;-59
2022/01/15 06:33:20;;;;;;;10.47;6.17;;;5.80;99.90;;;;;;5050324;28;20514;-57
2022/01/15 06:35:45;;;;;;;11.20;6.73;;;5.90;99.90;;;;;;5051425;28;20033;-57
2022/01/15 06:38:11;;;;;;;13.70;7.88;;;5.80;99.90;;;;;;5051695;28;20044;-57
2022/01/15 06:40:37;;;;;;;13.95;8.77;;;5.80;99.90;;;;;;5051997;28;20045;-57
2022/01/15 06:43:03;;;;;;;14.27;8.07;;;5.80;99.90;;;;;;5051021;28;20518;-59
2022/01/15 06:45:30;;;;;;;16.50;8.88;;;5.80;99.90;;;;;;5051254;28;20045;-58
2022/01/15 06:47:56;;;;;;;16.50;8.93;;;5.80;99.90;;;;;;5050908;28;20506;-57
2022/01/15 06:50:24;;;;;;;14.05;8.13;;;5.80;99.90;;;;;;5051509;28;20037;-57
2022/01/15 06:52:50;;;;;;;11.90;7.30;;;5.80;99.90;;;;;;5050963;28;20601;-59
2022/01/15 06:55:16;;;;;;;9.35;6.07;;;5.80;99.90;;;;;;5050852;28;20049;-56
2022/01/15 06:57:42;;;;;;;12.15;6.80;;;5.80;99.90;;;;;;5050355;28;20033;-58
2022/01/15 07:00:09;;;;;;;10.98;6.72;;;5.80;99.90;;;;;;5051175;28;20041;-58
2022/01/15 07:02:35;;;;;;;10.95;6.78;;;5.80;99.90;;;;;;5051325;28;20115;-58
2022/01/15 07:05:00;;;;;;;13.50;8.27;;;5.80;99.90;;;;;;5050905;28;20565;-58
2022/01/15 07:07:26;;;;;;;11.63;7.33;;;5.80;99.90;;;;;;5050728;28;20398;-55
2022/01/15 07:09:52;;;;;;;11.33;6.83;;;5.80;99.90;;;;;;5051012;28;20041;-58
2022/01/15 07:12:17;;;;;;;12.32;7.40;;;5.80;99.90;;;;;;5050675;28;20106;-57
2022/01/15 07:14:43;;;;;;;12.17;7.13;;;5.80;99.90;;;;;;5050809;28;20033;-58
2022/01/15 07:17:10;;;;;;;12.93;6.87;;;5.80;99.90;;;;;;5055443;28;20089;-59
2022/01/15 07:19:36;;;;;;;12.90;7.63;;;5.80;99.90;;;;;;5056063;28;20670;-57
2022/01/15 07:22:02;;;;;;;9.57;6.47;;;5.70;99.90;;;;;;5048157;28;20044;-58
2022/01/15 07:24:28;;;;;;;12.07;7.15;;;5.80;99.90;;;;;;5050678;28;20068;-57
2022/01/15 07:26:53;;;;;;;12.03;7.23;;;5.80;99.90;;;;;;5050147;28;20493;-59
2022/01/15 07:29:19;;;;;;;12.30;7.77;;;5.80;99.90;;;;;;5049968;28;20036;-57
2022/01/15 07:31:46;;;;;;;11.47;7.47;;;5.70;99.90;;;;;;5051101;28;20041;-59
2022/01/15 07:34:12;;;;;;;14.43;7.68;;;5.70;99.90;;;;;;5050870;28;20076;-58
2022/01/15 07:36:38;;;;;;;15.27;7.60;;;5.70;99.90;;;;;;5049513;28;20072;-59
2022/01/15 07:39:05;;;;;;;13.88;8.57;;;5.70;99.90;;;;;;5050658;28;20086;-58
2022/01/15 07:41:31;;;;;;;16.90;8.70;;;5.70;99.90;;;;;;5049877;28;20049;-59
2022/01/15 07:43:56;;;;;;;18.52;10.00;;;5.70;99.90;;;;;;5050312;28;20455;-59
2022/01/15 07:46:22;;;;;;;16.60;9.30;;;5.70;99.90;;;;;;5050335;28;20047;-58
2022/01/15 07:48:48;;;;;;;13.02;8.93;;;5.70;99.90;;;;;;5049855;28;20502;-59
2022/01/15 07:51:13;;;;;;;19.33;10.13;;;5.70;99.90;;;;;;5050086;28;20037;-59
2022/01/15 07:53:39;;;;;;;18.60;10.03;;;5.70;99.90;;;;;;5050083;28;20493;-57
2022/01/15 07:56:05;;;;;;;25.13;11.53;;;5.70;99.90;;;;;;5045371;28;20041;-56
2022/01/15 07:58:30;;;;;;;19.97;10.97;;;5.70;99.90;;;;;;5050206;28;20525;-57
2022/01/15 08:00:56;;;;;;;19.00;11.77;;;5.70;99.90;;;;;;5049908;28;20295;-57
2022/01/15 08:03:21;;;;;;;23.10;13.03;;;5.70;99.90;;;;;;5049924;28;20086;-59
2022/01/15 08:05:47;;;;;;;24.07;12.80;;;5.60;99.90;;;;;;5049499;28;20041;-59
2022/01/15 08:08:13;;;;;;;21.67;12.33;;;5.60;99.90;;;;;;5050297;28;20086;-59
2022/01/15 08:10:38;;;;;;;22.63;11.70;;;5.60;99.90;;;;;;5049162;28;20037;-59
2022/01/15 08:13:04;;;;;;;21.40;12.57;;;5.60;99.90;;;;;;5050066;28;20043;-59
2022/01/15 08:15:31;;;;;;;20.73;12.20;;;5.50;99.90;;;;;;5049449;28;20052;-59
2022/01/15 08:17:57;;;;;;;20.98;12.00;;;5.50;99.90;;;;;;5049163;28;20037;-58
2022/01/15 08:20:23;;;;;;;22.50;12.33;;;5.50;99.90;;;;;;5050234;28;20406;-58
2022/01/15 08:22:51;;;;;;;22.75;12.07;;;5.50;99.90;;;;;;5042960;28;20044;-56
2022/01/15 08:25:17;;;;;;;23.17;12.52;;;5.50;99.90;;;;;;5029535;28;20112;-59
2022/01/15 08:27:43;;;;;;;;;;;5.50;99.90;;;;;;5029654;28;20041;-55
2022/01/15 08:30:09;;;;;;;23.98;12.95;;;5.40;99.90;;;;;;5030324;28;19917;-57
2022/01/15 08:32:35;;;;;;;24.13;13.02;;;5.40;99.90;;;;;;5028750;28;20034;-59
2022/01/15 08:35:00;;;;;;;24.55;13.80;;;5.40;99.90;;;;;;5037107;28;20094;-56
2022/01/15 08:37:26;;;;;;;26.10;15.25;;;5.40;99.90;;;;;;5050024;28;20040;-57
2022/01/15 08:39:52;;;;;;;31.73;17.60;;;5.40;99.90;;;;;;5051491;28;20037;-60
2022/01/15 08:42:18;;;;;;;31.25;15.05;;;5.40;99.90;;;;;;5054140;28;20045;-60
2022/01/15 08:44:45;;;;;;;26.27;13.30;;;5.40;99.90;;;;;;5054044;28;20040;-56
2022/01/15 08:47:10;;;;;;;;;;;5.40;99.90;;;;;;5054407;28;20795;-57
2022/01/15 08:49:36;;;;;;;25.67;12.50;;;5.40;99.90;;;;;;5054157;28;19916;-58
2022/01/15 08:52:02;;;;;;;22.60;13.07;;;5.40;99.90;;;;;;5054216;28;20040;-57
2022/01/15 08:54:28;;;;;;;24.90;13.98;;;5.40;99.90;;;;;;5053791;28;20048;-56
2022/01/15 08:56:53;;;;;;;20.17;12.27;;;5.40;99.90;;;;;;5053637;28;20489;-58
2022/01/15 08:59:19;;;;;;;24.23;13.20;;;5.40;99.90;;;;;;5053953;28;20280;-60
2022/01/15 09:01:45;;;;;;;24.77;12.57;;;5.40;99.90;;;;;;5053733;28;20048;-56
2022/01/15 09:04:10;;;;;;;24.73;12.15;;;5.30;99.90;;;;;;5054337;28;20298;-56
2022/01/15 09:06:39;;;;;;;20.87;10.87;;;5.40;99.90;;;;;;5053509;28;20029;-58
2022/01/15 09:09:05;;;;;;;16.48;9.88;;;5.40;99.90;;;;;;5053568;28;20037;-59
2022/01/15 09:11:31;;;;;;;25.10;9.98;;;5.40;99.90;;;;;;5053741;28;20398;-60
2022/01/15 09:13:56;;;;;;;15.63;10.03;;;5.40;99.90;;;;;;5053677;28;20095;-54
2022/01/15 09:16:23;;;;;;;17.10;11.23;;;5.30;99.90;;;;;;5052537;28;20036;-56
2022/01/15 09:18:49;;;;;;;22.20;14.43;;;5.40;99.90;;;;;;5052483;28;20115;-56
2022/01/15 09:21:16;;;;;;;19.57;13.47;;;5.30;99.90;;;;;;5052980;28;20128;-58
2022/01/15 09:23:41;;;;;;;19.58;11.85;;;5.30;99.90;;;;;;5052298;28;20451;-57
2022/01/15 09:26:18;;;;;;;21.30;12.50;;;5.30;99.90;;;;;;5047381;28;20028;-58
2022/01/15 09:31:27;;;;;;;24.25;13.65;;;5.30;99.90;;;;;;5052832;28;20044;-58
2022/01/15 09:33:52;;;;;;;22.87;13.90;;;5.30;99.90;;;;;;5052847;28;20494;-58
2022/01/15 09:36:18;;;;;;;29.17;14.93;;;5.30;99.90;;;;;;5052305;28;20045;-58
2022/01/15 09:38:44;;;;;;;22.27;14.37;;;5.30;99.90;;;;;;5051261;28;20424;-56
2022/01/15 09:41:10;;;;;;;24.37;14.47;;;5.30;99.90;;;;;;5052259;28;20094;-57
2022/01/15 09:43:39;;;;;;;26.63;16.25;;;5.30;99.90;;;;;;5051958;28;20604;-58
2022/01/15 09:46:07;;;;;;;25.58;14.85;;;5.30;99.90;;;;;;5052308;28;20120;-57
2022/01/15 09:48:33;;;;;;;26.20;16.10;;;5.30;99.90;;;;;;5052021;28;20037;-58
2022/01/15 09:51:00;;;;;;;25.38;16.70;;;5.30;99.90;;;;;;5051467;28;20033;-55
2022/01/15 09:53:25;;;;;;;;;;;5.30;99.90;;;;;;5053060;28;20049;-57
2022/01/15 09:55:52;;;;;;;28.35;17.10;;;5.30;99.90;;;;;;5052105;28;19916;-56
2022/01/15 09:58:18;;;;;;;29.40;19.25;;;5.30;99.90;;;;;;5052410;28;20048;-57
2022/01/15 10:00:45;;;;;;;30.10;19.25;;;5.20;99.90;;;;;;5046319;28;20110;-58
2022/01/15 10:03:11;;;;;;;28.58;17.83;;;5.20;99.90;;;;;;5051757;28;20094;-56
2022/01/15 10:05:37;;;;;;;27.80;18.17;;;5.20;99.90;;;;;;5050601;28;20111;-56
2022/01/15 10:08:12;;;;;;;29.55;17.60;;;5.20;99.90;;;;;;5051085;28;20051;-57
2022/01/15 10:10:40;;;;;;;29.73;19.02;;;5.20;99.90;;;;;;5052600;28;20060;-58
2022/01/15 10:13:32;;;;;;;29.77;18.23;;;5.20;99.90;;;;;;5052396;28;20567;-58
2022/01/15 10:15:57;;;;;;;29.85;18.30;;;5.20;99.90;;;;;;5049952;28;20083;-58
2022/01/15 10:18:25;;;;;;;27.33;17.40;;;5.20;99.90;;;;;;5052292;28;20067;-57
2022/01/15 10:20:54;;;;;;;30.20;18.02;;;5.20;99.90;;;;;;5034503;28;20489;-58
2022/01/15 10:23:22;;;;;;;29.60;17.88;;;5.20;99.90;;;;;;5052518;28;20049;-57
2022/01/15 10:26:12;;;;;;;34.22;21.38;;;5.20;99.90;;;;;;5058533;28;20092;-57
2022/01/15 10:29:07;;;;;;;37.22;21.27;;;5.20;99.90;;;;;;5052678;28;20045;-57
2022/01/15 10:31:41;;;;;;;31.25;19.45;;;5.20;99.90;;;;;;5043599;28;20392;-54
2022/01/15 10:34:24;;;;;;;35.08;20.27;;;5.20;99.90;;;;;;5045012;28;20582;-55
2022/01/15 10:36:50;;;;;;;35.78;19.02;;;5.20;99.90;;;;;;5067478;28;20531;-57
2022/01/15 10:39:18;;;;;;;31.38;18.00;;;5.20;99.90;;;;;;5056061;28;20162;-58
2022/01/15 10:41:45;;;;;;;35.63;19.10;;;5.20;99.90;;;;;;5054729;28;20121;-58
2022/01/15 10:44:29;;;;;;;34.17;19.65;;;5.20;99.90;;;;;;5064823;28;20040;-58
2022/01/15 10:47:13;;;;;;;35.20;20.17;;;5.20;99.90;;;;;;5067749;28;20041;-56
2022/01/15 10:49:41;;;;;;;34.30;20.25;;;5.20;99.90;;;;;;5065676;28;20044;-57
2022/01/15 10:52:21;;;;;;;34.63;19.80;;;5.20;99.90;;;;;;5058104;28;20072;-57
2022/01/15 10:54:54;;;;;;;33.83;19.88;;;5.20;99.90;;;;;;5051415;28;20036;-57
2022/01/15 10:57:26;;;;;;;30.40;19.23;;;5.20;99.90;;;;;;5062259;28;20037;-57
2022/01/15 11:00:28;;;;;;;31.25;18.73;;;5.20;99.90;;;;;;5065086;28;20044;-58
2022/01/15 11:02:59;;;;;;;36.28;19.63;;;5.20;99.90;;;;;;5054375;28;20067;-58
2022/01/15 11:05:39;;;;;;;30.67;19.15;;;5.20;99.90;;;;;;5067945;28;20033;-58
2022/01/15 11:08:16;;;;;;;30.50;17.23;;;5.20;99.90;;;;;;5068099;28;20037;-56
2022/01/15 11:10:43;;;;;;;30.93;17.40;;;5.20;99.90;;;;;;5068579;28;20106;-58
2022/01/15 11:13:11;;;;;;;34.90;19.42;;;5.20;99.90;;;;;;5069521;28;20654;-58
2022/01/15 11:15:39;;;;;;;31.98;18.80;;;5.20;99.90;;;;;;5068450;28;20072;-58
2022/01/15 11:18:05;;;;;;;28.17;17.63;;;5.20;99.90;;;;;;5064971;28;20394;-57
2022/01/15 11:20:33;;;;;;;32.60;18.52;;;5.20;99.90;;;;;;5051361;28;20056;-56
2022/01/15 11:23:02;;;;;;;27.27;16.52;;;5.20;99.90;;;;;;5044964;28;20121;-57
2022/01/15 11:25:29;;;;;;;30.70;18.33;;;5.20;99.90;;;;;;5054666;28;20037;-58
2022/01/15 11:27:57;;;;;;;35.58;21.42;;;5.20;99.90;;;;;;5067933;28;20052;-57
2022/01/15 11:30:23;;;;;;;28.77;17.40;;;5.20;99.90;;;;;;5063243;28;20626;-58
2022/01/15 11:32:49;;;;;;;30.23;18.73;;;5.20;99.90;;;;;;5065141;28;20273;-57
2022/01/15 11:35:15;;;;;;;34.90;19.73;;;5.20;99.90;;;;;;5062782;28;20105;-58
2022/01/15 11:37:49;;;;;;;28.37;17.70;;;5.20;99.90;;;;;;5069725;28;20048;-55
2022/01/15 11:40:35;;;;;;;29.70;18.75;;;5.10;99.90;;;;;;5064987;28;20319;-58
2022/01/15 11:43:36;;;;;;;31.50;18.65;;;5.10;99.90;;;;;;5068400;28;20032;-56
2022/01/15 11:46:33;;;;;;;30.42;17.63;;;5.10;99.90;;;;;;5061433;28;20079;-58
2022/01/15 11:49:24;;;;;;;29.15;17.48;;;5.10;99.90;;;;;;5050435;28;20037;-58
2022/01/15 11:52:18;;;;;;;28.35;17.92;;;5.10;99.90;;;;;;5050716;28;20037;-56
2022/01/15 11:54:59;;;;;;;29.20;18.40;;;5.10;99.90;;;;;;5050117;28;20045;-56
2022/01/15 11:57:31;;;;;;;28.65;18.55;;;5.10;99.90;;;;;;5050680;28;20073;-56
2022/01/15 11:59:58;;;;;;;29.52;20.15;;;5.10;99.90;;;;;;5050000;28;20049;-57
2022/01/15 12:02:29;;;;;;;33.90;21.00;;;5.10;99.90;;;;;;5049983;28;20528;-57
2022/01/15 12:05:14;;;;;;;32.20;20.35;;;5.00;99.90;;;;;;5049743;28;20451;-58
2022/01/15 12:07:39;;;;;;;41.25;24.23;;;5.00;99.90;;;;;;5050633;28;20035;-57
2022/01/15 12:10:05;;;;;;;38.37;22.10;;;5.00;99.90;;;;;;5048938;28;20127;-58
2022/01/15 12:12:35;;;;;;;34.35;20.55;;;5.00;99.90;;;;;;5046117;28;20037;-57
2022/01/15 12:15:06;;;;;;;32.70;19.75;;;5.00;99.90;;;;;;5048207;28;20084;-58
2022/01/15 12:17:39;;;;;;;32.25;19.13;;;5.00;99.90;;;;;;5028744;28;20033;-59
2022/01/15 12:20:31;;;;;;;34.47;20.70;;;5.00;99.90;;;;;;5029933;28;20057;-59
2022/01/15 12:23:03;;;;;;;33.30;19.23;;;5.00;99.90;;;;;;5010388;28;20135;-59
2022/01/15 12:25:34;;;;;;;34.10;19.00;;;5.00;99.90;;;;;;5031049;28;20387;-58
2022/01/15 12:28:09;;;;;;;33.03;21.00;;;5.00;99.90;;;;;;5063095;28;20055;-59
2022/01/15 12:30:40;;;;;;;35.47;20.58;;;5.00;99.90;;;;;;5064978;28;20198;-58
2022/01/15 12:33:10;;;;;;;31.10;18.70;;;4.90;99.90;;;;;;5048652;28;20116;-57
2022/01/15 12:35:37;;;;;;;36.58;19.70;;;4.90;99.90;;;;;;5047144;28;20037;-59
2022/01/15 12:38:07;;;;;;;34.45;21.75;;;4.90;99.90;;;;;;5049286;28;20095;-59
2022/01/15 12:40:35;;;;;;;35.90;21.00;;;4.90;99.90;;;;;;5048876;28;20083;-58
2022/01/15 12:43:07;;;;;;;33.60;19.80;;;4.80;99.90;;;;;;5049426;28;20043;-58
2022/01/15 12:45:35;;;;;;;35.50;21.17;;;4.80;99.90;;;;;;5047490;28;20087;-59
2022/01/15 12:48:01;;;;;;;38.85;22.55;;;4.80;99.90;;;;;;5047982;28;20045;-57
2022/01/15 12:50:28;;;;;;;41.75;24.33;;;4.80;99.90;;;;;;5049889;28;20036;-59
2022/01/15 12:53:04;;;;;;;35.65;22.20;;;4.80;99.90;;;;;;5048595;28;20060;-59
2022/01/15 12:55:35;;;;;;;37.67;22.52;;;4.80;99.90;;;;;;5048610;28;20116;-59
2022/01/15 12:58:03;;;;;;;44.15;22.30;;;4.80;99.90;;;;;;5031177;28;20402;-59
2022/01/15 13:00:32;;;;;;;40.28;23.67;;;4.90;99.90;;;;;;5048385;28;20095;-60
2022/01/15 13:03:00;;;;;;;41.35;24.63;;;4.80;99.90;;;;;;5048924;28;20071;-57
2022/01/15 13:05:28;;;;;;;37.80;23.25;;;4.90;99.90;;;;;;5049544;28;20033;-59
2022/01/15 13:07:59;;;;;;;37.58;20.55;;;4.90;99.90;;;;;;5049420;28;20037;-58
2022/01/15 13:10:57;;;;;;;34.67;19.95;;;4.90;99.90;;;;;;5049795;28;20084;-59